Weather at Soldotna Airport

Public forecast

Using degrees Fahrenheit for public forecast. Weather courtesy of forecast.io.

Current aviation weather report (METAR) for Soldotna Airport

Retrieved 2021/10/18 14:56 UTC (1 hour ago):

PASX 181456Z AUTO 03004KT 10SM CLR 03/M02 A2962 RMK AO2 SLP040 T00331022 53016

Closest aviation forecast (TAF) to Soldotna Airport

Forecast is more than 6 hours old.

Closest forecast is Kenai Municipal Airport, 8.5 nm (15.7 km) NW. Retrieved 2021/10/18 06:28 UTC (10 hours ago):

TAF PAEN 180526Z 1806/1906 03018G28KT P6SM BKN120 WS010/10045KT FM181200 03015KT P6SM BKN120 WS020/08030KT FM181800 03014KT P6SM BKN120